sensor_id;sensor_type;location;lat;lon;timestamp;temperature;humidity
35894;DHT22;21994;48.204;16.516;2022-07-22T00:00:43;24.90;94.80
35894;DHT22;21994;48.204;16.516;2022-07-22T00:03:10;24.90;95.00
35894;DHT22;21994;48.204;16.516;2022-07-22T00:05:36;24.80;95.20
35894;DHT22;21994;48.204;16.516;2022-07-22T00:08:02;24.70;95.40
35894;DHT22;21994;48.204;16.516;2022-07-22T00:10:28;24.70;95.60
35894;DHT22;21994;48.204;16.516;2022-07-22T00:12:54;24.80;95.60
35894;DHT22;21994;48.204;16.516;2022-07-22T00:15:20;24.80;95.50
35894;DHT22;21994;48.204;16.516;2022-07-22T00:17:46;24.70;96.00
35894;DHT22;21994;48.204;16.516;2022-07-22T00:20:12;24.60;96.10
35894;DHT22;21994;48.204;16.516;2022-07-22T00:22:38;24.60;96.30
35894;DHT22;21994;48.204;16.516;2022-07-22T00:25:04;24.40;96.80
35894;DHT22;21994;48.204;16.516;2022-07-22T00:27:31;24.30;97.30
35894;DHT22;21994;48.204;16.516;2022-07-22T00:29:57;24.20;97.90
35894;DHT22;21994;48.204;16.516;2022-07-22T00:32:23;24.20;98.20
35894;DHT22;21994;48.204;16.516;2022-07-22T00:34:49;24.00;98.80
35894;DHT22;21994;48.204;16.516;2022-07-22T00:37:15;24.10;99.10
35894;DHT22;21994;48.204;16.516;2022-07-22T00:39:41;23.90;99.30
35894;DHT22;21994;48.204;16.516;2022-07-22T00:42:07;24.00;99.20
35894;DHT22;21994;48.204;16.516;2022-07-22T00:44:33;24.10;99.30
35894;DHT22;21994;48.204;16.516;2022-07-22T00:46:59;24.10;99.30
35894;DHT22;21994;48.204;16.516;2022-07-22T00:49:26;24.10;99.20
35894;DHT22;21994;48.204;16.516;2022-07-22T00:51:52;24.00;99.40
35894;DHT22;21994;48.204;16.516;2022-07-22T00:54:17;24.00;99.80
35894;DHT22;21994;48.204;16.516;2022-07-22T00:56:43;24.00;99.60
35894;DHT22;21994;48.204;16.516;2022-07-22T00:59:11;23.80;99.90
35894;DHT22;21994;48.204;16.516;2022-07-22T01:01:37;23.80;99.90
35894;DHT22;21994;48.204;16.516;2022-07-22T01:04:03;23.80;99.90
35894;DHT22;21994;48.204;16.516;2022-07-22T01:06:30;23.70;99.90
35894;DHT22;21994;48.204;16.516;2022-07-22T01:08:56;23.60;99.90
35894;DHT22;21994;48.204;16.516;2022-07-22T01:11:22;23.50;99.90
35894;DHT22;21994;48.204;16.516;2022-07-22T01:13:48;23.50;99.90
35894;DHT22;21994;48.204;16.516;2022-07-22T01:16:16;23.40;99.90
35894;DHT22;21994;48.204;16.516;2022-07-22T01:18:42;23.30;99.90
35894;DHT22;21994;48.204;16.516;2022-07-22T01:21:09;23.30;99.90
35894;DHT22;21994;48.204;16.516;2022-07-22T01:23:35;23.20;99.90
35894;DHT22;21994;48.204;16.516;2022-07-22T01:26:02;23.10;99.90
35894;DHT22;21994;48.204;16.516;2022-07-22T01:28:29;23.00;99.90
35894;DHT22;21994;48.204;16.516;2022-07-22T01:30:55;23.00;99.90
35894;DHT22;21994;48.204;16.516;2022-07-22T01:33:22;23.00;99.90
35894;DHT22;21994;48.204;16.516;2022-07-22T01:35:49;23.00;99.90
35894;DHT22;21994;48.204;16.516;2022-07-22T01:38:19;22.90;99.90
35894;DHT22;21994;48.204;16.516;2022-07-22T01:40:46;22.90;99.90
35894;DHT22;21994;48.204;16.516;2022-07-22T01:43:12;22.90;99.90
35894;DHT22;21994;48.204;16.516;2022-07-22T01:45:44;22.70;99.90
35894;DHT22;21994;48.204;16.516;2022-07-22T01:48:10;22.70;99.90
35894;DHT22;21994;48.204;16.516;2022-07-22T01:50:36;22.60;99.90
35894;DHT22;21994;48.204;16.516;2022-07-22T01:53:02;22.60;99.90
35894;DHT22;21994;48.204;16.516;2022-07-22T01:55:29;22.60;99.90
35894;DHT22;21994;48.204;16.516;2022-07-22T01:57:54;22.50;99.90
35894;DHT22;21994;48.204;16.516;2022-07-22T02:00:20;22.50;99.90
35894;DHT22;21994;48.204;16.516;2022-07-22T02:02:46;22.50;99.90
35894;DHT22;21994;48.204;16.516;2022-07-22T02:05:12;22.50;99.90
35894;DHT22;21994;48.204;16.516;2022-07-22T02:07:38;22.50;99.90
35894;DHT22;21994;48.204;16.516;2022-07-22T02:10:05;22.50;99.90
35894;DHT22;21994;48.204;16.516;2022-07-22T02:12:32;22.50;99.90
35894;DHT22;21994;48.204;16.516;2022-07-22T02:14:58;22.50;99.90
35894;DHT22;21994;48.204;16.516;2022-07-22T02:17:25;22.40;99.90
35894;DHT22;21994;48.204;16.516;2022-07-22T02:19:51;22.40;99.90
35894;DHT22;21994;48.204;16.516;2022-07-22T02:26:18;22.30;99.90
35894;DHT22;21994;48.204;16.516;2022-07-22T02:28:45;22.20;99.90
35894;DHT22;21994;48.204;16.516;2022-07-22T02:31:11;22.20;99.90
35894;DHT22;21994;48.204;16.516;2022-07-22T02:33:37;22.20;99.90
35894;DHT22;21994;48.204;16.516;2022-07-22T02:36:04;22.20;99.90
35894;DHT22;21994;48.204;16.516;2022-07-22T02:38:30;22.20;99.90
35894;DHT22;21994;48.204;16.516;2022-07-22T02:40:56;22.10;99.90
35894;DHT22;21994;48.204;16.516;2022-07-22T02:43:22;22.10;99.90
35894;DHT22;21994;48.204;16.516;2022-07-22T02:45:48;22.10;99.90
35894;DHT22;21994;48.204;16.516;2022-07-22T02:48:14;22.10;99.90
35894;DHT22;21994;48.204;16.516;2022-07-22T02:50:45;22.00;99.90
35894;DHT22;21994;48.204;16.516;2022-07-22T02:53:12;21.90;99.90
35894;DHT22;21994;48.204;16.516;2022-07-22T02:55:38;21.90;99.90
35894;DHT22;21994;48.204;16.516;2022-07-22T02:58:08;21.80;99.90
35894;DHT22;21994;48.204;16.516;2022-07-22T03:00:37;21.80;99.90
35894;DHT22;21994;48.204;16.516;2022-07-22T03:03:04;21.70;99.90
35894;DHT22;21994;48.204;16.516;2022-07-22T03:05:31;21.60;99.90
35894;DHT22;21994;48.204;16.516;2022-07-22T03:07:57;21.50;99.90
35894;DHT22;21994;48.204;16.516;2022-07-22T03:10:23;21.40;99.90
35894;DHT22;21994;48.204;16.516;2022-07-22T03:12:49;21.40;99.90
35894;DHT22;21994;48.204;16.516;2022-07-22T03:15:15;21.30;99.90
35894;DHT22;21994;48.204;16.516;2022-07-22T03:17:41;21.20;99.90
35894;DHT22;21994;48.204;16.516;2022-07-22T03:20:08;21.10;99.90
35894;DHT22;21994;48.204;16.516;2022-07-22T03:22:36;21.00;99.90
35894;DHT22;21994;48.204;16.516;2022-07-22T03:25:03;21.00;99.90
35894;DHT22;21994;48.204;16.516;2022-07-22T03:27:29;20.90;99.90
35894;DHT22;21994;48.204;16.516;2022-07-22T03:29:55;20.80;99.90
35894;DHT22;21994;48.204;16.516;2022-07-22T03:32:21;20.70;99.90
35894;DHT22;21994;48.204;16.516;2022-07-22T03:34:47;20.70;99.90
35894;DHT22;21994;48.204;16.516;2022-07-22T03:37:13;20.70;99.90
35894;DHT22;21994;48.204;16.516;2022-07-22T03:39:38;20.60;99.90
35894;DHT22;21994;48.204;16.516;2022-07-22T03:42:04;20.60;99.90
35894;DHT22;21994;48.204;16.516;2022-07-22T03:44:30;20.50;99.90
35894;DHT22;21994;48.204;16.516;2022-07-22T03:46:56;20.40;99.90
35894;DHT22;21994;48.204;16.516;2022-07-22T03:49:22;20.40;99.90
35894;DHT22;21994;48.204;16.516;2022-07-22T03:51:48;20.40;99.90
35894;DHT22;21994;48.204;16.516;2022-07-22T03:54:14;20.40;99.90
35894;DHT22;21994;48.204;16.516;2022-07-22T03:56:40;20.40;99.90
35894;DHT22;21994;48.204;16.516;2022-07-22T03:59:05;20.40;99.90
35894;DHT22;21994;48.204;16.516;2022-07-22T04:01:31;20.40;99.90
35894;DHT22;21994;48.204;16.516;2022-07-22T04:03:57;20.40;99.90
35894;DHT22;21994;48.204;16.516;2022-07-22T04:06:23;20.40;99.90
35894;DHT22;21994;48.204;16.516;2022-07-22T04:08:49;20.40;99.90
35894;DHT22;21994;48.204;16.516;2022-07-22T04:11:15;20.50;99.90
35894;DHT22;21994;48.204;16.516;2022-07-22T04:13:41;20.60;99.90
35894;DHT22;21994;48.204;16.516;2022-07-22T04:16:06;20.70;99.90
35894;DHT22;21994;48.204;16.516;2022-07-22T04:18:33;20.80;99.90
35894;DHT22;21994;48.204;16.516;2022-07-22T04:20:59;20.90;99.90
35894;DHT22;21994;48.204;16.516;2022-07-22T04:23:25;21.00;99.90
35894;DHT22;21994;48.204;16.516;2022-07-22T04:25:51;21.00;99.90
35894;DHT22;21994;48.204;16.516;2022-07-22T04:28:17;21.20;99.90
35894;DHT22;21994;48.204;16.516;2022-07-22T04:30:43;21.20;99.90
35894;DHT22;21994;48.204;16.516;2022-07-22T04:33:08;21.30;99.90
35894;DHT22;21994;48.204;16.516;2022-07-22T04:35:34;21.40;99.90
35894;DHT22;21994;48.204;16.516;2022-07-22T04:38:00;21.50;99.90
35894;DHT22;21994;48.204;16.516;2022-07-22T04:40:26;21.60;99.90
35894;DHT22;21994;48.204;16.516;2022-07-22T04:42:52;21.70;99.90
35894;DHT22;21994;48.204;16.516;2022-07-22T04:45:18;21.80;99.90
35894;DHT22;21994;48.204;16.516;2022-07-22T04:47:44;21.90;99.90
35894;DHT22;21994;48.204;16.516;2022-07-22T04:50:10;22.00;99.90
35894;DHT22;21994;48.204;16.516;2022-07-22T04:52:36;22.00;99.90
35894;DHT22;21994;48.204;16.516;2022-07-22T04:55:02;22.10;99.90
35894;DHT22;21994;48.204;16.516;2022-07-22T04:57:28;22.30;99.90
35894;DHT22;21994;48.204;16.516;2022-07-22T04:59:54;22.40;99.90
35894;DHT22;21994;48.204;16.516;2022-07-22T05:02:20;22.40;99.90
35894;DHT22;21994;48.204;16.516;2022-07-22T05:04:46;22.40;99.90
35894;DHT22;21994;48.204;16.516;2022-07-22T05:07:12;22.50;99.90
35894;DHT22;21994;48.204;16.516;2022-07-22T05:09:38;22.60;99.90
35894;DHT22;21994;48.204;16.516;2022-07-22T05:12:04;22.60;99.90
35894;DHT22;21994;48.204;16.516;2022-07-22T05:14:30;22.60;99.90
35894;DHT22;21994;48.204;16.516;2022-07-22T05:16:56;22.80;99.90
35894;DHT22;21994;48.204;16.516;2022-07-22T05:19:22;22.90;99.90
35894;DHT22;21994;48.204;16.516;2022-07-22T05:21:48;22.90;99.90
35894;DHT22;21994;48.204;16.516;2022-07-22T05:24:14;23.10;99.90
35894;DHT22;21994;48.204;16.516;2022-07-22T05:26:39;23.20;99.90
35894;DHT22;21994;48.204;16.516;2022-07-22T05:29:05;23.30;99.90
35894;DHT22;21994;48.204;16.516;2022-07-22T05:31:32;23.40;99.90
35894;DHT22;21994;48.204;16.516;2022-07-22T05:33:58;23.60;99.90
35894;DHT22;21994;48.204;16.516;2022-07-22T05:36:24;23.70;99.90
35894;DHT22;21994;48.204;16.516;2022-07-22T05:38:50;23.70;99.90
35894;DHT22;21994;48.204;16.516;2022-07-22T05:41:16;23.70;99.90
35894;DHT22;21994;48.204;16.516;2022-07-22T05:43:42;23.70;99.90
35894;DHT22;21994;48.204;16.516;2022-07-22T05:46:08;23.80;99.90
35894;DHT22;21994;48.204;16.516;2022-07-22T05:48:34;23.80;99.90
35894;DHT22;21994;48.204;16.516;2022-07-22T05:51:01;23.90;99.90
35894;DHT22;21994;48.204;16.516;2022-07-22T05:53:26;23.90;99.90
35894;DHT22;21994;48.204;16.516;2022-07-22T05:55:52;24.00;99.90
35894;DHT22;21994;48.204;16.516;2022-07-22T05:58:18;24.10;99.90
35894;DHT22;21994;48.204;16.516;2022-07-22T06:00:44;24.20;99.90
35894;DHT22;21994;48.204;16.516;2022-07-22T06:03:10;24.20;99.90
35894;DHT22;21994;48.204;16.516;2022-07-22T06:05:36;24.10;99.90
35894;DHT22;21994;48.204;16.516;2022-07-22T06:08:02;24.10;99.90
35894;DHT22;21994;48.204;16.516;2022-07-22T06:10:29;24.40;99.90
35894;DHT22;21994;48.204;16.516;2022-07-22T06:12:55;24.30;99.90
35894;DHT22;21994;48.204;16.516;2022-07-22T06:15:21;24.30;99.90
35894;DHT22;21994;48.204;16.516;2022-07-22T06:17:47;24.20;99.90
35894;DHT22;21994;48.204;16.516;2022-07-22T06:20:13;24.30;99.90
35894;DHT22;21994;48.204;16.516;2022-07-22T06:22:42;24.40;99.90
35894;DHT22;21994;48.204;16.516;2022-07-22T06:25:08;24.40;99.90
35894;DHT22;21994;48.204;16.516;2022-07-22T06:27:34;24.50;99.90
35894;DHT22;21994;48.204;16.516;2022-07-22T06:30:00;24.50;99.90
35894;DHT22;21994;48.204;16.516;2022-07-22T06:32:26;24.50;99.90
35894;DHT22;21994;48.204;16.516;2022-07-22T06:34:52;24.40;99.90
35894;DHT22;21994;48.204;16.516;2022-07-22T06:37:18;24.60;99.90
35894;DHT22;21994;48.204;16.516;2022-07-22T06:39:44;24.60;99.90
35894;DHT22;21994;48.204;16.516;2022-07-22T06:42:12;24.60;99.90
35894;DHT22;21994;48.204;16.516;2022-07-22T06:44:38;24.70;99.90
35894;DHT22;21994;48.204;16.516;2022-07-22T06:47:04;24.80;99.90
35894;DHT22;21994;48.204;16.516;2022-07-22T06:49:29;24.90;99.90
35894;DHT22;21994;48.204;16.516;2022-07-22T06:51:56;25.00;99.90
35894;DHT22;21994;48.204;16.516;2022-07-22T06:54:22;25.20;99.90
35894;DHT22;21994;48.204;16.516;2022-07-22T06:56:48;25.30;99.90
35894;DHT22;21994;48.204;16.516;2022-07-22T06:59:13;25.60;99.90
35894;DHT22;21994;48.204;16.516;2022-07-22T07:01:39;25.60;99.90
35894;DHT22;21994;48.204;16.516;2022-07-22T07:04:05;25.80;99.90
35894;DHT22;21994;48.204;16.516;2022-07-22T07:06:32;25.90;99.90
35894;DHT22;21994;48.204;16.516;2022-07-22T07:08:58;26.20;99.90
35894;DHT22;21994;48.204;16.516;2022-07-22T07:11:24;26.50;99.90
35894;DHT22;21994;48.204;16.516;2022-07-22T07:13:50;26.60;99.90
35894;DHT22;21994;48.204;16.516;2022-07-22T07:16:15;26.90;99.30
35894;DHT22;21994;48.204;16.516;2022-07-22T07:18:41;27.10;99.40
35894;DHT22;21994;48.204;16.516;2022-07-22T07:21:07;27.40;99.90
35894;DHT22;21994;48.204;16.516;2022-07-22T07:23:33;27.60;98.20
35894;DHT22;21994;48.204;16.516;2022-07-22T07:25:59;27.60;99.00
35894;DHT22;21994;48.204;16.516;2022-07-22T07:28:25;27.50;97.90
35894;DHT22;21994;48.204;16.516;2022-07-22T07:30:50;27.60;98.70
35894;DHT22;21994;48.204;16.516;2022-07-22T07:33:17;27.80;98.00
35894;DHT22;21994;48.204;16.516;2022-07-22T07:35:43;27.90;98.80
35894;DHT22;21994;48.204;16.516;2022-07-22T07:38:09;28.10;98.20
35894;DHT22;21994;48.204;16.516;2022-07-22T07:40:35;28.30;97.40
35894;DHT22;21994;48.204;16.516;2022-07-22T07:43:01;28.50;97.80
35894;DHT22;21994;48.204;16.516;2022-07-22T07:45:27;28.80;97.30
35894;DHT22;21994;48.204;16.516;2022-07-22T07:47:53;28.90;96.70
35894;DHT22;21994;48.204;16.516;2022-07-22T07:50:19;29.10;96.20
35894;DHT22;21994;48.204;16.516;2022-07-22T07:52:47;29.20;97.10
35894;DHT22;21994;48.204;16.516;2022-07-22T07:55:14;29.30;96.20
35894;DHT22;21994;48.204;16.516;2022-07-22T07:57:41;29.50;96.50
35894;DHT22;21994;48.204;16.516;2022-07-22T08:00:10;29.60;95.70
35894;DHT22;21994;48.204;16.516;2022-07-22T08:02:36;29.70;95.50
35894;DHT22;21994;48.204;16.516;2022-07-22T08:05:06;30.00;96.60
35894;DHT22;21994;48.204;16.516;2022-07-22T08:07:32;30.30;95.80
35894;DHT22;21994;48.204;16.516;2022-07-22T08:09:58;30.30;95.30
35894;DHT22;21994;48.204;16.516;2022-07-22T08:12:24;30.30;94.30
35894;DHT22;21994;48.204;16.516;2022-07-22T08:14:50;30.40;93.90
35894;DHT22;21994;48.204;16.516;2022-07-22T08:17:16;30.50;94.40
35894;DHT22;21994;48.204;16.516;2022-07-22T08:19:42;30.80;94.70
35894;DHT22;21994;48.204;16.516;2022-07-22T08:22:07;31.10;93.30
35894;DHT22;21994;48.204;16.516;2022-07-22T08:24:34;31.20;93.50
35894;DHT22;21994;48.204;16.516;2022-07-22T08:27:00;31.40;93.90
35894;DHT22;21994;48.204;16.516;2022-07-22T08:29:26;31.20;94.40
35894;DHT22;21994;48.204;16.516;2022-07-22T08:31:51;31.70;92.90
35894;DHT22;21994;48.204;16.516;2022-07-22T08:34:17;31.60;92.80
35894;DHT22;21994;48.204;16.516;2022-07-22T08:36:43;31.90;92.00
35894;DHT22;21994;48.204;16.516;2022-07-22T08:39:09;31.80;92.60
35894;DHT22;21994;48.204;16.516;2022-07-22T08:41:37;32.20;91.60
35894;DHT22;21994;48.204;16.516;2022-07-22T08:44:06;32.40;91.40
35894;DHT22;21994;48.204;16.516;2022-07-22T08:46:34;32.30;91.40
35894;DHT22;21994;48.204;16.516;2022-07-22T08:49:00;32.70;91.70
35894;DHT22;21994;48.204;16.516;2022-07-22T08:51:27;33.20;91.10
35894;DHT22;21994;48.204;16.516;2022-07-22T08:53:57;33.00;90.70
35894;DHT22;21994;48.204;16.516;2022-07-22T08:56:23;33.10;90.00
35894;DHT22;21994;48.204;16.516;2022-07-22T08:58:49;33.00;90.00
35894;DHT22;21994;48.204;16.516;2022-07-22T09:01:17;33.40;91.20
35894;DHT22;21994;48.204;16.516;2022-07-22T09:03:54;33.40;86.50
35894;DHT22;21994;48.204;16.516;2022-07-22T09:06:26;33.60;87.60
35894;DHT22;21994;48.204;16.516;2022-07-22T09:09:00;33.90;85.30
35894;DHT22;21994;48.204;16.516;2022-07-22T09:11:29;34.10;84.60
35894;DHT22;21994;48.204;16.516;2022-07-22T09:17:29;33.70;86.50
35894;DHT22;21994;48.204;16.516;2022-07-22T09:20:20;34.40;86.10
35894;DHT22;21994;48.204;16.516;2022-07-22T09:22:48;34.90;85.00
35894;DHT22;21994;48.204;16.516;2022-07-22T09:28:18;35.00;81.60
35894;DHT22;21994;48.204;16.516;2022-07-22T09:30:50;34.90;80.10
35894;DHT22;21994;48.204;16.516;2022-07-22T09:33:18;34.70;82.60
35894;DHT22;21994;48.204;16.516;2022-07-22T09:35:45;35.40;78.80
35894;DHT22;21994;48.204;16.516;2022-07-22T09:38:13;35.30;76.90
35894;DHT22;21994;48.204;16.516;2022-07-22T09:40:45;35.30;78.00
35894;DHT22;21994;48.204;16.516;2022-07-22T09:43:17;35.40;78.20
35894;DHT22;21994;48.204;16.516;2022-07-22T09:45:50;35.00;77.20
35894;DHT22;21994;48.204;16.516;2022-07-22T09:48:23;35.40;77.90
35894;DHT22;21994;48.204;16.516;2022-07-22T09:50:50;36.00;76.00
35894;DHT22;21994;48.204;16.516;2022-07-22T09:53:19;35.90;75.40
35894;DHT22;21994;48.204;16.516;2022-07-22T09:55:47;36.30;73.20
35894;DHT22;21994;48.204;16.516;2022-07-22T09:58:13;35.60;74.70
35894;DHT22;21994;48.204;16.516;2022-07-22T10:00:40;36.10;76.70
35894;DHT22;21994;48.204;16.516;2022-07-22T10:03:10;36.60;72.20
35894;DHT22;21994;48.204;16.516;2022-07-22T10:05:40;36.60;72.50
35894;DHT22;21994;48.204;16.516;2022-07-22T10:08:07;37.40;72.80
35894;DHT22;21994;48.204;16.516;2022-07-22T10:10:35;37.10;71.50
35894;DHT22;21994;48.204;16.516;2022-07-22T10:13:04;37.40;68.40
35894;DHT22;21994;48.204;16.516;2022-07-22T10:15:32;37.50;66.90
35894;DHT22;21994;48.204;16.516;2022-07-22T10:18:04;37.50;73.30
35894;DHT22;21994;48.204;16.516;2022-07-22T10:20:32;37.20;70.50
35894;DHT22;21994;48.204;16.516;2022-07-22T10:23:04;36.70;68.30
35894;DHT22;21994;48.204;16.516;2022-07-22T10:25:52;36.90;69.90
35894;DHT22;21994;48.204;16.516;2022-07-22T10:31:24;36.90;66.00
35894;DHT22;21994;48.204;16.516;2022-07-22T10:33:55;36.90;65.40
35894;DHT22;21994;48.204;16.516;2022-07-22T10:36:35;37.50;67.50
35894;DHT22;21994;48.204;16.516;2022-07-22T10:39:13;37.90;68.50
35894;DHT22;21994;48.204;16.516;2022-07-22T10:41:44;38.20;66.00
35894;DHT22;21994;48.204;16.516;2022-07-22T10:44:11;38.30;66.40
35894;DHT22;21994;48.204;16.516;2022-07-22T10:46:48;38.40;66.10
35894;DHT22;21994;48.204;16.516;2022-07-22T10:49:22;38.60;64.90
35894;DHT22;21994;48.204;16.516;2022-07-22T10:52:10;39.00;63.90
35894;DHT22;21994;48.204;16.516;2022-07-22T10:55:15;38.70;64.90
35894;DHT22;21994;48.204;16.516;2022-07-22T10:57:45;39.20;62.70
35894;DHT22;21994;48.204;16.516;2022-07-22T11:00:11;39.10;62.70
35894;DHT22;21994;48.204;16.516;2022-07-22T11:02:38;38.40;61.50
35894;DHT22;21994;48.204;16.516;2022-07-22T11:05:04;38.40;64.90
35894;DHT22;21994;48.204;16.516;2022-07-22T11:07:31;38.20;63.70
35894;DHT22;21994;48.204;16.516;2022-07-22T11:10:17;38.40;64.10
35894;DHT22;21994;48.204;16.516;2022-07-22T11:12:48;38.00;66.80
35894;DHT22;21994;48.204;16.516;2022-07-22T11:15:15;37.80;64.00
35894;DHT22;21994;48.204;16.516;2022-07-22T11:17:41;38.00;65.40
35894;DHT22;21994;48.204;16.516;2022-07-22T11:20:10;37.60;64.90
35894;DHT22;21994;48.204;16.516;2022-07-22T11:22:37;37.60;67.80
35894;DHT22;21994;48.204;16.516;2022-07-22T11:25:06;37.50;65.50
35894;DHT22;21994;48.204;16.516;2022-07-22T11:27:33;37.60;65.70
35894;DHT22;21994;48.204;16.516;2022-07-22T11:29:59;37.60;66.60
35894;DHT22;21994;48.204;16.516;2022-07-22T11:32:27;36.90;63.70
35894;DHT22;21994;48.204;16.516;2022-07-22T11:34:56;36.30;64.10
35894;DHT22;21994;48.204;16.516;2022-07-22T11:37:25;36.20;67.90
35894;DHT22;21994;48.204;16.516;2022-07-22T11:39:58;36.10;66.70
35894;DHT22;21994;48.204;16.516;2022-07-22T11:42:26;36.10;66.60
35894;DHT22;21994;48.204;16.516;2022-07-22T11:44:52;36.10;69.10
35894;DHT22;21994;48.204;16.516;2022-07-22T11:47:18;35.90;68.80
35894;DHT22;21994;48.204;16.516;2022-07-22T11:49:46;35.70;67.70
35894;DHT22;21994;48.204;16.516;2022-07-22T11:52:15;35.80;66.80
35894;DHT22;21994;48.204;16.516;2022-07-22T11:54:42;36.00;65.30
35894;DHT22;21994;48.204;16.516;2022-07-22T11:57:10;36.30;64.10
35894;DHT22;21994;48.204;16.516;2022-07-22T11:59:36;36.10;67.00
35894;DHT22;21994;48.204;16.516;2022-07-22T12:02:03;36.10;68.60
35894;DHT22;21994;48.204;16.516;2022-07-22T12:04:32;35.80;63.70
35894;DHT22;21994;48.204;16.516;2022-07-22T12:07:00;35.90;68.90
35894;DHT22;21994;48.204;16.516;2022-07-22T12:09:33;36.10;71.80
35894;DHT22;21994;48.204;16.516;2022-07-22T12:12:01;36.10;67.90
35894;DHT22;21994;48.204;16.516;2022-07-22T12:14:29;36.30;70.70
35894;DHT22;21994;48.204;16.516;2022-07-22T12:17:00;36.30;66.50
35894;DHT22;21994;48.204;16.516;2022-07-22T12:19:30;36.20;67.60
35894;DHT22;21994;48.204;16.516;2022-07-22T12:22:01;36.10;65.90
35894;DHT22;21994;48.204;16.516;2022-07-22T12:24:30;35.90;67.90
35894;DHT22;21994;48.204;16.516;2022-07-22T12:27:11;35.80;67.80
35894;DHT22;21994;48.204;16.516;2022-07-22T12:32:06;35.60;70.80
35894;DHT22;21994;48.204;16.516;2022-07-22T12:34:41;35.50;66.50
35894;DHT22;21994;48.204;16.516;2022-07-22T12:40:20;35.80;68.60
35894;DHT22;21994;48.204;16.516;2022-07-22T12:43:01;36.00;72.10
35894;DHT22;21994;48.204;16.516;2022-07-22T12:45:36;36.30;66.60
35894;DHT22;21994;48.204;16.516;2022-07-22T12:50:33;36.30;66.70
35894;DHT22;21994;48.204;16.516;2022-07-22T12:55:39;36.30;65.70
35894;DHT22;21994;48.204;16.516;2022-07-22T12:58:13;36.10;65.90
35894;DHT22;21994;48.204;16.516;2022-07-22T13:00:49;36.00;66.80
35894;DHT22;21994;48.204;16.516;2022-07-22T13:03:16;36.20;66.00
35894;DHT22;21994;48.204;16.516;2022-07-22T13:05:46;36.00;64.30
35894;DHT22;21994;48.204;16.516;2022-07-22T13:08:17;35.90;65.80
35894;DHT22;21994;48.204;16.516;2022-07-22T13:10:43;35.90;68.90
35894;DHT22;21994;48.204;16.516;2022-07-22T13:13:09;36.10;67.60
35894;DHT22;21994;48.204;16.516;2022-07-22T13:15:36;36.30;66.20
35894;DHT22;21994;48.204;16.516;2022-07-22T13:18:03;36.40;67.70
35894;DHT22;21994;48.204;16.516;2022-07-22T13:20:29;36.40;66.90
35894;DHT22;21994;48.204;16.516;2022-07-22T13:22:55;36.20;66.50
35894;DHT22;21994;48.204;16.516;2022-07-22T13:25:21;36.20;66.10
35894;DHT22;21994;48.204;16.516;2022-07-22T13:27:47;36.20;67.70
35894;DHT22;21994;48.204;16.516;2022-07-22T13:30:13;36.30;66.30
35894;DHT22;21994;48.204;16.516;2022-07-22T13:32:39;36.30;67.90
35894;DHT22;21994;48.204;16.516;2022-07-22T13:35:05;36.50;66.00
35894;DHT22;21994;48.204;16.516;2022-07-22T13:37:31;36.50;65.20
35894;DHT22;21994;48.204;16.516;2022-07-22T13:40:00;36.60;67.80
35894;DHT22;21994;48.204;16.516;2022-07-22T13:42:26;36.60;63.50
35894;DHT22;21994;48.204;16.516;2022-07-22T13:44:52;36.30;66.80
35894;DHT22;21994;48.204;16.516;2022-07-22T13:47:20;36.60;66.40
35894;DHT22;21994;48.204;16.516;2022-07-22T13:49:46;36.50;65.90
35894;DHT22;21994;48.204;16.516;2022-07-22T13:52:13;36.70;67.10
35894;DHT22;21994;48.204;16.516;2022-07-22T13:54:39;36.90;66.40
35894;DHT22;21994;48.204;16.516;2022-07-22T13:57:05;37.00;65.80
35894;DHT22;21994;48.204;16.516;2022-07-22T13:59:32;37.00;65.10
35894;DHT22;21994;48.204;16.516;2022-07-22T14:01:58;36.30;66.40
35894;DHT22;21994;48.204;16.516;2022-07-22T14:04:24;36.20;64.50
35894;DHT22;21994;48.204;16.516;2022-07-22T14:06:51;36.30;63.90
35894;DHT22;21994;48.204;16.516;2022-07-22T14:09:17;36.10;67.20
35894;DHT22;21994;48.204;16.516;2022-07-22T14:11:43;35.90;67.90
35894;DHT22;21994;48.204;16.516;2022-07-22T14:14:09;35.40;66.90
35894;DHT22;21994;48.204;16.516;2022-07-22T14:16:35;35.70;64.70
35894;DHT22;21994;48.204;16.516;2022-07-22T14:19:07;35.70;67.80
35894;DHT22;21994;48.204;16.516;2022-07-22T14:21:40;35.80;65.70
35894;DHT22;21994;48.204;16.516;2022-07-22T14:24:08;36.10;68.50
35894;DHT22;21994;48.204;16.516;2022-07-22T14:26:36;36.30;65.80
35894;DHT22;21994;48.204;16.516;2022-07-22T14:29:03;36.30;66.50
35894;DHT22;21994;48.204;16.516;2022-07-22T14:31:29;36.60;69.10
35894;DHT22;21994;48.204;16.516;2022-07-22T14:33:55;36.70;66.70
35894;DHT22;21994;48.204;16.516;2022-07-22T14:36:21;36.90;67.40
35894;DHT22;21994;48.204;16.516;2022-07-22T14:38:48;36.90;69.90
35894;DHT22;21994;48.204;16.516;2022-07-22T14:41:19;36.90;61.50
35894;DHT22;21994;48.204;16.516;2022-07-22T14:43:46;37.20;64.70
35894;DHT22;21994;48.204;16.516;2022-07-22T14:46:12;37.20;62.90
35894;DHT22;21994;48.204;16.516;2022-07-22T14:48:38;37.10;64.20
35894;DHT22;21994;48.204;16.516;2022-07-22T14:51:05;37.20;66.50
35894;DHT22;21994;48.204;16.516;2022-07-22T14:53:31;36.80;65.40
35894;DHT22;21994;48.204;16.516;2022-07-22T14:55:58;37.30;67.10
35894;DHT22;21994;48.204;16.516;2022-07-22T14:58:24;37.00;65.10
35894;DHT22;21994;48.204;16.516;2022-07-22T15:00:50;36.00;67.20
35894;DHT22;21994;48.204;16.516;2022-07-22T15:03:16;36.60;68.70
35894;DHT22;21994;48.204;16.516;2022-07-22T15:05:42;36.70;66.20
35894;DHT22;21994;48.204;16.516;2022-07-22T15:08:09;37.00;65.90
35894;DHT22;21994;48.204;16.516;2022-07-22T15:10:35;36.40;66.50
35894;DHT22;21994;48.204;16.516;2022-07-22T15:13:02;36.60;66.50
35894;DHT22;21994;48.204;16.516;2022-07-22T15:15:29;36.90;65.00
35894;DHT22;21994;48.204;16.516;2022-07-22T15:17:55;36.80;67.90
35894;DHT22;21994;48.204;16.516;2022-07-22T15:20:21;37.20;68.00
35894;DHT22;21994;48.204;16.516;2022-07-22T15:22:47;36.80;65.30
35894;DHT22;21994;48.204;16.516;2022-07-22T15:25:12;37.20;65.30
35894;DHT22;21994;48.204;16.516;2022-07-22T15:27:38;37.40;63.30
35894;DHT22;21994;48.204;16.516;2022-07-22T15:30:07;37.40;67.30
35894;DHT22;21994;48.204;16.516;2022-07-22T15:32:34;37.40;68.10
35894;DHT22;21994;48.204;16.516;2022-07-22T15:35:01;37.40;65.60
35894;DHT22;21994;48.204;16.516;2022-07-22T15:37:26;37.60;63.80
35894;DHT22;21994;48.204;16.516;2022-07-22T15:39:53;37.90;64.40